Time;durP1;ratioP1;P1;durP2;ratioP2;P2;SDS_P1;SDS_P2;PMS_P1;PMS_P2;Temp;Humidity;BMP_temperature;BMP_pressure;BME280_temperature;BME280_humidity;BME280_pressure;Samples;Min_cycle;Max_cycle;Signal;HPM_P1;HPM_P2
2022/09/02 00:01:38;;;;;;;0.85;0.85;;;10.50;99.90;;;;;;5033482;28;20637;-87
2022/09/02 00:04:12;;;;;;;2.05;1.08;;;10.90;99.90;;;;;;5015760;28;20176;-86
2022/09/02 00:06:38;;;;;;;1.25;0.93;;;;;;;;;;5032450;28;20179;-87
2022/09/02 00:09:06;;;;;;;0.95;0.90;;;10.90;99.90;;;;;;5015674;28;20187;-86
2022/09/02 00:11:33;;;;;;;1.23;1.13;;;10.70;99.90;;;;;;5015061;28;20228;-86
2022/09/02 00:14:04;;;;;;;1.48;1.17;;;10.30;99.90;;;;;;5032993;28;20212;-87
2022/09/02 00:16:32;;;;;;;2.25;1.00;;;10.70;99.90;;;;;;5033126;28;20168;-87
2022/09/02 00:18:59;;;;;;;1.00;0.85;;;10.80;99.90;;;;;;5015494;28;20181;-87
2022/09/02 00:21:25;;;;;;;1.10;0.77;;;;;;;;;;5032861;28;20190;-86
2022/09/02 00:23:52;;;;;;;3.78;1.23;;;10.40;99.90;;;;;;5032937;28;20710;-86
2022/09/02 00:26:18;;;;;;;7.65;1.05;;;11.00;99.90;;;;;;5033074;28;20191;-86
2022/09/02 00:28:45;;;;;;;0.88;0.88;;;10.50;99.90;;;;;;5032675;28;20180;-87
2022/09/02 00:31:12;;;;;;;0.80;0.80;;;10.50;99.90;;;;;;5015668;28;20239;-87
2022/09/02 00:33:38;;;;;;;1.65;1.55;;;;;;;;;;5032790;28;20272;-87
2022/09/02 00:36:04;;;;;;;1.55;1.13;;;10.90;99.90;;;;;;5015542;28;20188;-87
2022/09/02 00:38:35;;;;;;;1.23;0.63;;;10.20;99.90;;;;;;5032734;28;20177;-87
2022/09/02 00:41:04;;;;;;;1.83;1.30;;;10.40;99.90;;;;;;5033195;28;20169;-86
2022/09/02 00:43:39;;;;;;;0.40;0.40;;;;;;;;;;5015121;28;20208;-87
2022/09/02 00:46:05;;;;;;;1.00;1.00;;;10.50;99.90;;;;;;5032687;28;20239;-87
2022/09/02 00:48:32;;;;;;;1.48;0.80;;;10.50;99.90;;;;;;5033731;28;20212;-86
2022/09/02 00:50:58;;;;;;;0.93;0.93;;;;;;;;;;5016002;28;20173;-87
2022/09/02 00:53:24;;;;;;;2.15;1.35;;;10.70;99.90;;;;;;5015073;28;20680;-86
2022/09/02 00:55:51;;;;;;;0.93;0.93;;;10.00;99.90;;;;;;4998793;28;20208;-87
2022/09/02 00:58:31;;;;;;;0.43;0.43;;;10.30;99.90;;;;;;5032866;28;20176;-86
2022/09/02 01:00:58;;;;;;;0.98;0.93;;;10.10;99.90;;;;;;5032917;28;20525;-87
2022/09/02 01:03:26;;;;;;;1.27;1.17;;;12.10;99.90;;;;;;5032818;28;20180;-87
2022/09/02 01:05:54;;;;;;;1.02;1.02;;;10.70;99.90;;;;;;5014787;28;20216;-87
2022/09/02 01:08:25;;;;;;;0.80;0.80;;;10.70;99.90;;;;;;5014685;28;20545;-87
2022/09/02 01:10:54;;;;;;;0.80;0.80;;;10.10;99.90;;;;;;5032501;28;20168;-87
2022/09/02 01:13:23;;;;;;;1.23;0.75;;;10.60;99.90;;;;;;5014864;28;20625;-87
2022/09/02 01:15:55;;;;;;;0.83;0.70;;;10.20;99.90;;;;;;5032440;28;20177;-87
2022/09/02 01:18:27;;;;;;;0.70;0.70;;;10.50;99.90;;;;;;5033931;28;20194;-88
2022/09/02 01:20:53;;;;;;;1.10;1.00;;;10.20;99.90;;;;;;5036375;28;20248;-86
2022/09/02 01:23:19;;;;;;;1.20;1.17;;;;;;;;;;5018874;28;20268;-86
2022/09/02 01:25:45;;;;;;;2.63;1.15;;;9.90;99.90;;;;;;5002010;28;20216;-86
2022/09/02 01:28:17;;;;;;;5.60;0.52;;;9.90;99.90;;;;;;5018681;28;20215;-87
2022/09/02 01:30:47;;;;;;;0.93;0.93;;;10.00;99.90;;;;;;5035596;28;20224;-87
2022/09/02 01:33:13;;;;;;;0.93;0.82;;;10.50;99.90;;;;;;5036005;28;20176;-86
2022/09/02 01:35:39;;;;;;;0.98;0.90;;;;;;;;;;5018078;28;20192;-86
2022/09/02 01:38:05;;;;;;;1.13;1.03;;;10.00;99.90;;;;;;5036203;28;20173;-86
2022/09/02 01:40:31;;;;;;;0.90;0.90;;;;;;;;;;5035742;28;20638;-87
2022/09/02 01:43:02;;;;;;;0.60;0.60;;;9.80;99.90;;;;;;5035737;28;20180;-86
2022/09/02 01:45:29;;;;;;;1.10;0.90;;;12.90;99.90;;;;;;5036012;28;20202;-86
2022/09/02 01:47:54;;;;;;;0.82;0.82;;;9.90;99.90;;;;;;5035462;28;20184;-87
2022/09/02 01:50:20;;;;;;;2.38;1.55;;;11.50;99.90;;;;;;5018299;28;20580;-86
2022/09/02 01:52:46;;;;;;;0.60;0.60;;;;;;;;;;5018377;28;20618;-87
2022/09/02 01:55:12;;;;;;;0.60;0.60;;;;;;;;;;5044886;28;20228;-87
2022/09/02 01:57:38;;;;;;;1.65;1.45;;;;;;;;;;5060307;28;20172;-87
2022/09/02 02:00:07;;;;;;;1.63;1.23;;;9.60;99.90;;;;;;5048571;28;20187;-87
2022/09/02 02:02:33;;;;;;;1.20;0.67;;;;;;;;;;5035356;28;20177;-87
2022/09/02 02:04:59;;;;;;;0.67;0.67;;;10.10;99.90;;;;;;5035443;28;20208;-86
2022/09/02 02:07:25;;;;;;;0.70;0.70;;;;;;;;;;5035533;28;20185;-86
2022/09/02 02:09:51;;;;;;;0.90;0.90;;;;;;;;;;5035445;28;20288;-87
2022/09/02 02:12:18;;;;;;;1.53;1.33;;;9.70;99.90;;;;;;5035415;28;20177;-87
2022/09/02 02:14:44;;;;;;;1.33;1.13;;;9.90;99.90;;;;;;5034960;28;20181;-87
2022/09/02 02:17:10;;;;;;;2.73;1.17;;;;;;;;;;5035345;28;20636;-86
2022/09/02 02:19:36;;;;;;;1.15;0.82;;;;;;;;;;5035158;28;20208;-86
2022/09/02 02:22:02;;;;;;;0.73;0.73;;;9.70;99.90;;;;;;5035250;28;20183;-86
2022/09/02 02:24:28;;;;;;;2.17;1.77;;;;;;;;;;5035288;28;20208;-86
2022/09/02 02:26:53;;;;;;;1.67;1.10;;;9.50;99.90;;;;;;5034649;28;20673;-86
2022/09/02 02:29:19;;;;;;;2.47;1.93;;;;;;;;;;5034585;28;20236;-87
2022/09/02 02:31:46;;;;;;;2.57;1.03;;;9.00;99.90;;;;;;5034455;28;20204;-86
2022/09/02 02:34:12;;;;;;;0.73;0.73;;;;;;;;;;5034968;28;20215;-87
2022/09/02 02:36:38;;;;;;;0.90;0.90;;;9.10;99.90;;;;;;5034958;28;20272;-87
2022/09/02 02:39:08;;;;;;;1.70;1.10;;;8.90;99.90;;;;;;5017182;28;20187;-86
2022/09/02 02:41:34;;;;;;;1.57;1.47;;;;;;;;;;5034901;28;20703;-87
2022/09/02 02:43:59;;;;;;;0.90;0.90;;;9.00;99.90;;;;;;5016444;28;20295;-86
2022/09/02 02:46:25;;;;;;;1.27;0.77;;;;;;;;;;5016933;28;20275;-86
2022/09/02 02:48:51;;;;;;;1.87;1.73;;;;;;;;;;5017062;28;20188;-86
2022/09/02 02:51:17;;;;;;;3.10;1.10;;;9.20;99.90;;;;;;5016889;28;20641;-86
2022/09/02 02:53:43;;;;;;;1.10;1.00;;;;;;;;;;5016669;28;20184;-86
2022/09/02 02:56:10;;;;;;;1.10;1.00;;;;;;;;;;5035002;28;20212;-86
2022/09/02 02:58:36;;;;;;;1.60;1.30;;;;;;;;;;5016955;28;20208;-87
2022/09/02 03:01:02;;;;;;;1.80;1.30;;;;;;;;;;5034114;28;20575;-87
2022/09/02 03:03:28;;;;;;;2.20;1.30;;;;;;;;;;5034672;28;20767;-87
2022/09/02 03:05:54;;;;;;;1.63;1.33;;;;;;;;;;5033986;28;20304;-87
2022/09/02 03:08:20;;;;;;;1.50;1.00;;;;;;;;;;5016659;28;20185;-87
2022/09/02 03:10:51;;;;;;;1.53;1.43;;;9.00;99.90;;;;;;5034076;28;20651;-86
2022/09/02 03:13:17;;;;;;;0.53;0.53;;;8.80;99.90;;;;;;5034131;28;20236;-86
2022/09/02 03:15:43;;;;;;;1.23;1.03;;;;;;;;;;5034046;28;20184;-86
2022/09/02 03:18:09;;;;;;;2.73;1.13;;;;;;;;;;5033624;28;20542;-86
2022/09/02 03:20:34;;;;;;;2.30;1.20;;;8.60;99.90;;;;;;5034097;28;20230;-85
2022/09/02 03:23:02;;;;;;;1.33;1.23;;;;;;;;;;5016024;28;20550;-87
2022/09/02 03:25:29;;;;;;;1.60;1.50;;;8.90;99.90;;;;;;5000005;28;20220;-86
2022/09/02 03:27:55;;;;;;;1.10;0.67;;;;;;;;;;5033457;28;20188;-87
2022/09/02 03:30:24;;;;;;;3.27;1.17;;;8.80;99.90;;;;;;5015820;28;20239;-88
2022/09/02 03:32:58;;;;;;;1.23;1.03;;;8.80;99.90;;;;;;5029374;28;20271;-87
2022/09/02 03:35:24;;;;;;;1.43;1.33;;;;;;;;;;4994056;28;20201;-85
2022/09/02 03:37:51;;;;;;;1.27;1.17;;;8.70;99.90;;;;;;5013649;28;20212;-86
2022/09/02 03:40:20;;;;;;;2.37;1.07;;;8.70;99.90;;;;;;4981339;28;20331;-85
2022/09/02 03:42:46;;;;;;;4.23;1.27;;;;;;;;;;5020442;28;20180;-85
2022/09/02 03:45:14;;;;;;;1.23;0.70;;;;;;;;;;5009652;28;20247;-87
2022/09/02 03:47:46;;;;;;;1.20;0.80;;;;;;;;;;4994725;28;20934;-87
2022/09/02 03:50:12;;;;;;;1.97;1.10;;;;;;;;;;5025811;28;20181;-86
2022/09/02 03:52:38;;;;;;;0.80;0.77;;;;;;;;;;5021072;28;20189;-86
2022/09/02 03:55:04;;;;;;;1.60;0.90;;;8.60;99.90;;;;;;5021657;28;20657;-87
2022/09/02 03:57:31;;;;;;;2.77;1.37;;;;;;;;;;5015309;28;20646;-86
2022/09/02 03:59:57;;;;;;;2.77;1.47;;;;;;;;;;5023249;28;20224;-87
2022/09/02 04:02:23;;;;;;;1.77;0.97;;;;;;;;;;5014212;28;20267;-87
2022/09/02 04:04:49;;;;;;;3.33;1.77;;;;;;;;;;5002844;28;20224;-88
2022/09/02 04:07:15;;;;;;;2.37;1.93;;;;;;;;;;5016336;28;20216;-87
2022/09/02 04:09:41;;;;;;;1.50;1.40;;;;;;;;;;5020362;28;20781;-88
2022/09/02 04:12:07;;;;;;;1.27;1.17;;;;;;;;;;4983155;28;20189;-88
2022/09/02 04:14:33;;;;;;;1.43;1.33;;;;;;;;;;5003319;28;20184;-87
2022/09/02 04:16:59;;;;;;;1.90;1.77;;;;;;;;;;4996626;28;20688;-87
2022/09/02 04:19:25;;;;;;;1.20;1.10;;;;;;;;;;4999915;28;20224;-86
2022/09/02 04:21:51;;;;;;;0.63;0.63;;;;;;;;;;5000127;28;20181;-87
2022/09/02 04:24:17;;;;;;;1.53;1.33;;;;;;;;;;5016304;28;20665;-85
2022/09/02 04:26:43;;;;;;;0.97;0.87;;;;;;;;;;5025712;28;20529;-86
2022/09/02 04:29:09;;;;;;;4.73;2.03;;;;;;;;;;5011466;28;20189;-85
2022/09/02 04:31:35;;;;;;;1.00;1.00;;;9.00;99.90;;;;;;5011763;28;20204;-87
2022/09/02 04:34:01;;;;;;;1.07;0.70;;;9.20;99.90;;;;;;4996398;28;20188;-85
2022/09/02 04:36:27;;;;;;;1.03;1.03;;;;;;;;;;5022749;28;20658;-88
2022/09/02 04:38:54;;;;;;;2.87;1.40;;;;;;;;;;5012858;28;20207;-89
2022/09/02 04:41:26;;;;;;;1.20;1.10;;;9.10;99.90;;;;;;4997086;28;20192;-86
2022/09/02 04:43:55;;;;;;;1.20;0.73;;;9.40;99.90;;;;;;5009117;28;20185;-87
2022/09/02 04:46:21;;;;;;;3.40;1.37;;;;;;;;;;5008884;28;20245;-87
2022/09/02 04:48:47;;;;;;;0.80;0.80;;;;;;;;;;4991173;28;20653;-86
2022/09/02 04:51:19;;;;;;;0.80;0.80;;;9.80;99.90;;;;;;5004655;28;20197;-86
2022/09/02 04:53:46;;;;;;;5.00;1.40;;;9.80;99.90;;;;;;4996640;28;20181;-86
2022/09/02 04:56:16;;;;;;;2.87;0.87;;;9.80;99.90;;;;;;5025919;28;20185;-85
2022/09/02 04:58:43;;;;;;;1.30;1.20;;;10.00;99.90;;;;;;5009911;28;20192;-84
2022/09/02 05:01:14;;;;;;;0.67;0.67;;;9.80;99.90;;;;;;5014724;28;20220;-86
2022/09/02 05:03:40;;;;;;;5.33;2.10;;;10.20;99.90;;;;;;5029418;28;20273;-85
2022/09/02 05:06:09;;;;;;;1.73;1.63;;;10.30;99.90;;;;;;5018712;28;20212;-85
2022/09/02 05:08:35;;;;;;;4.37;1.63;;;10.30;99.90;;;;;;5036340;28;20282;-84
2022/09/02 05:11:08;;;;;;;2.53;1.30;;;10.40;99.90;;;;;;5012010;28;20267;-86
2022/09/02 05:13:34;;;;;;;1.08;0.88;;;10.40;99.90;;;;;;5005685;28;20176;-85
2022/09/02 05:16:01;;;;;;;1.17;1.08;;;;;;;;;;5036309;28;20664;-85
2022/09/02 05:18:27;;;;;;;2.80;2.45;;;10.90;99.90;;;;;;5036494;28;20188;-86
2022/09/02 05:20:53;;;;;;;1.95;1.80;;;;;;;;;;5036926;28;20185;-86
2022/09/02 05:23:19;;;;;;;5.57;3.00;;;;;;;;;;5036643;28;20180;-86
2022/09/02 05:25:44;;;;;;;2.35;2.08;;;11.20;99.90;;;;;;5018567;28;20306;-89
2022/09/02 05:28:10;;;;;;;1.88;1.23;;;11.50;99.90;;;;;;5042609;28;20183;-88
2022/09/02 05:30:39;;;;;;;2.78;2.00;;;11.20;99.90;;;;;;5042421;28;20235;-88
2022/09/02 05:33:05;;;;;;;1.03;0.93;;;11.30;99.90;;;;;;5047460;28;20221;-86
2022/09/02 05:35:31;;;;;;;3.50;0.85;;;;;;;;;;5061247;28;20164;-89
2022/09/02 05:37:57;;;;;;;1.98;0.98;;;11.60;99.90;;;;;;5051736;28;20219;-89
2022/09/02 05:40:23;;;;;;;1.13;0.95;;;11.50;99.90;;;;;;5036891;28;20207;-88
2022/09/02 05:42:48;;;;;;;2.65;2.05;;;11.50;99.90;;;;;;5020569;28;20189;-87
2022/09/02 05:45:14;;;;;;;1.00;0.85;;;;;;;;;;5036237;28;20196;-88
2022/09/02 05:47:40;;;;;;;1.75;1.00;;;11.50;99.90;;;;;;5036699;28;20267;-86
2022/09/02 05:50:06;;;;;;;3.20;0.70;;;11.50;99.90;;;;;;5035751;28;20244;-88
2022/09/02 05:52:32;;;;;;;4.22;2.05;;;12.00;99.90;;;;;;5037510;28;20197;-89
2022/09/02 05:54:59;;;;;;;1.92;1.33;;;12.10;99.90;;;;;;5019700;28;20699;-87
2022/09/02 05:57:25;;;;;;;1.05;1.05;;;12.20;99.90;;;;;;5036181;28;20659;-89
2022/09/02 05:59:55;;;;;;;0.90;0.82;;;12.10;99.90;;;;;;5018902;28;20523;-88
2022/09/02 06:02:22;;;;;;;1.48;1.38;;;12.60;99.90;;;;;;5019372;28;20625;-88
2022/09/02 06:04:50;;;;;;;1.15;1.05;;;12.30;99.90;;;;;;5038723;28;20201;-89
2022/09/02 06:07:17;;;;;;;1.73;1.05;;;12.50;99.90;;;;;;5022402;28;20251;-89
2022/09/02 06:09:43;;;;;;;1.40;1.10;;;13.70;99.90;;;;;;5037091;28;20173;-90
2022/09/02 06:12:10;;;;;;;1.13;1.02;;;;;;;;;;5019052;28;20177;-91
2022/09/02 06:14:36;;;;;;;0.95;0.88;;;13.00;99.90;;;;;;5014178;28;20207;-87
2022/09/02 06:17:03;;;;;;;1.10;1.05;;;13.40;99.90;;;;;;5029130;28;20180;-87
2022/09/02 06:19:29;;;;;;;1.60;1.05;;;13.40;99.90;;;;;;5012897;28;20193;-85
2022/09/02 06:21:56;;;;;;;1.40;1.30;;;13.20;99.90;;;;;;4996096;28;20177;-87
2022/09/02 06:24:22;;;;;;;0.70;0.70;;;13.00;99.90;;;;;;5020010;28;20192;-85
2022/09/02 06:26:48;;;;;;;3.08;1.25;;;13.70;99.90;;;;;;5016543;28;20181;-85
2022/09/02 06:29:14;;;;;;;2.95;0.68;;;;;;;;;;5031037;28;20199;-85
2022/09/02 06:31:45;;;;;;;0.60;0.55;;;13.50;99.90;;;;;;5008375;28;20630;-86
2022/09/02 06:34:12;;;;;;;0.73;0.73;;;14.20;99.90;;;;;;5038744;28;20172;-86
2022/09/02 06:36:39;;;;;;;0.98;0.60;;;13.90;99.90;;;;;;5014829;28;20189;-84
2022/09/02 06:39:05;;;;;;;0.80;0.60;;;14.20;99.90;;;;;;5032474;28;20177;-85
2022/09/02 06:41:32;;;;;;;0.70;0.70;;;14.10;99.90;;;;;;5029121;28;20191;-85
2022/09/02 06:44:01;;;;;;;2.10;0.77;;;14.30;99.90;;;;;;5031755;28;20649;-85
2022/09/02 06:46:30;;;;;;;2.92;1.42;;;14.70;99.90;;;;;;5037748;28;20212;-87
2022/09/02 06:48:56;;;;;;;0.85;0.85;;;;;;;;;;5038365;28;20166;-86
2022/09/02 06:51:26;;;;;;;4.00;1.55;;;14.60;99.90;;;;;;5043278;28;20177;-87
2022/09/02 06:53:52;;;;;;;1.88;0.47;;;;;;;;;;5040863;28;20184;-87
2022/09/02 06:56:18;;;;;;;0.40;0.40;;;14.50;99.90;;;;;;5021614;28;20181;-86
2022/09/02 06:58:44;;;;;;;0.75;0.50;;;14.50;99.90;;;;;;4997236;28;20185;-87
2022/09/02 07:01:20;;;;;;;0.57;0.47;;;15.00;99.90;;;;;;5021738;28;20184;-87
2022/09/02 07:06:36;;;;;;;0.60;0.43;;;15.50;99.90;;;;;;5006297;28;20192;-86
2022/09/02 07:09:04;;;;;;;0.30;0.30;;;15.40;99.90;;;;;;5007965;28;20196;-87
2022/09/02 07:11:30;;;;;;;0.40;0.40;;;16.00;99.90;;;;;;5023900;28;20172;-86
2022/09/02 07:14:00;;;;;;;0.50;0.50;;;;;;;;;;5005193;28;20225;-86
2022/09/02 07:16:27;;;;;;;1.10;0.70;;;15.50;99.90;;;;;;5005077;28;20626;-86
2022/09/02 07:18:53;;;;;;;0.85;0.85;;;;;;;;;;5005130;28;20613;-86
2022/09/02 07:21:19;;;;;;;0.43;0.43;;;15.20;99.90;;;;;;5012246;28;20219;-85
2022/09/02 07:23:44;;;;;;;1.42;0.70;;;;;;;;;;5024935;28;20209;-85
2022/09/02 07:26:15;;;;;;;0.85;0.47;;;16.00;99.90;;;;;;5007216;28;20208;-85
2022/09/02 07:28:42;;;;;;;0.75;0.50;;;16.00;99.90;;;;;;5028619;28;20314;-87
2022/09/02 07:31:12;;;;;;;0.25;0.25;;;16.10;99.90;;;;;;5023754;28;20228;-87
2022/09/02 07:33:38;;;;;;;2.47;0.80;;;15.90;99.90;;;;;;5021218;28;20740;-86
2022/09/02 07:36:05;;;;;;;0.60;0.60;;;16.10;98.00;;;;;;5004112;28;20268;-86
2022/09/02 07:38:32;;;;;;;0.98;0.47;;;16.60;99.90;;;;;;5029159;28;20228;-87
2022/09/02 07:40:59;;;;;;;2.58;0.88;;;16.20;99.90;;;;;;5022096;28;20272;-86
2022/09/02 07:43:26;;;;;;;1.27;1.00;;;;;;;;;;5005679;28;20176;-86
2022/09/02 07:45:54;;;;;;;1.70;0.85;;;;;;;;;;5006431;28;20203;-86
2022/09/02 07:48:20;;;;;;;0.40;0.40;;;16.30;99.90;;;;;;5023852;28;20196;-87
2022/09/02 07:50:46;;;;;;;0.60;0.50;;;16.30;99.90;;;;;;5006112;28;20176;-85
2022/09/02 07:53:14;;;;;;;0.40;0.40;;;;;;;;;;5005178;28;20264;-86
2022/09/02 07:55:40;;;;;;;1.67;0.57;;;;;;;;;;5003959;28;20705;-86
2022/09/02 07:58:06;;;;;;;0.43;0.43;;;;;;;;;;5006045;28;20263;-86
2022/09/02 08:00:32;;;;;;;0.45;0.40;;;17.20;99.90;;;;;;5022545;28;20260;-86
2022/09/02 08:02:59;;;;;;;0.38;0.38;;;17.30;99.90;;;;;;5019018;28;20264;-86
2022/09/02 08:05:26;;;;;;;0.60;0.45;;;17.10;92.30;;;;;;4992782;28;20229;-87
2022/09/02 08:07:52;;;;;;;0.47;0.38;;;;;;;;;;4976142;28;20189;-86
2022/09/02 08:10:19;;;;;;;0.70;0.50;;;17.00;99.90;;;;;;5002530;28;20184;-87
2022/09/02 08:12:45;;;;;;;0.40;0.40;;;17.30;91.50;;;;;;5013081;28;20260;-86
2022/09/02 08:15:12;;;;;;;0.40;0.40;;;17.30;91.00;;;;;;5019084;28;20221;-87
2022/09/02 08:17:39;;;;;;;0.22;0.22;;;17.40;90.70;;;;;;5026216;28;20188;-86
2022/09/02 08:20:07;;;;;;;0.13;0.13;;;17.00;99.90;;;;;;5015298;28;20181;-87
2022/09/02 08:22:34;;;;;;;0.45;0.28;;;17.80;89.70;;;;;;5032930;28;20181;-86
2022/09/02 08:25:00;;;;;;;0.20;0.20;;;17.00;99.90;;;;;;5033019;28;20204;-85
2022/09/02 08:27:26;;;;;;;0.60;0.45;;;;;;;;;;4998545;28;20181;-86
2022/09/02 08:29:52;;;;;;;0.25;0.25;;;17.30;99.90;;;;;;5014701;28;20638;-86
2022/09/02 08:32:19;;;;;;;0.20;0.20;;;;;;;;;;5033044;28;20201;-87
2022/09/02 08:34:45;;;;;;;0.30;0.30;;;;;;;;;;5014911;28;20195;-86
2022/09/02 08:37:11;;;;;;;0.30;0.25;;;18.00;99.90;;;;;;5015535;28;20246;-87
2022/09/02 08:39:37;;;;;;;0.32;0.32;;;;;;;;;;5033016;28;20181;-85
2022/09/02 08:42:26;;;;;;;0.75;0.22;;;17.40;98.90;;;;;;5034388;28;20173;-86
2022/09/02 08:44:59;;;;;;;0.20;0.20;;;17.70;97.50;;;;;;5032964;28;20204;-86
2022/09/02 08:47:30;;;;;;;0.30;0.30;;;17.80;80.10;;;;;;5032920;28;20172;-87
2022/09/02 08:49:59;;;;;;;0.98;0.55;;;17.70;98.60;;;;;;5033274;28;20180;-86
2022/09/02 08:53:08;;;;;;;0.63;0.35;;;18.00;80.00;;;;;;5032877;28;20268;-87
2022/09/02 08:55:55;;;;;;;0.30;0.30;;;18.40;98.30;;;;;;5014667;28;20557;-87
2022/09/02 08:58:26;;;;;;;0.77;0.35;;;18.20;77.50;;;;;;5033094;28;20223;-88
2022/09/02 09:01:11;;;;;;;0.28;0.20;;;18.30;75.90;;;;;;5033043;28;20259;-87
2022/09/02 09:03:54;;;;;;;0.52;0.52;;;18.40;75.50;;;;;;5014918;28;20223;-86
2022/09/02 09:06:31;;;;;;;0.20;0.20;;;18.40;75.00;;;;;;5034284;28;20219;-86
2022/09/02 09:09:07;;;;;;;0.30;0.30;;;18.40;75.40;;;;;;5036012;28;20180;-86
2022/09/02 09:12:00;;;;;;;0.38;0.38;;;18.20;94.80;;;;;;5044704;28;20164;-87
2022/09/02 09:14:41;;;;;;;0.38;0.38;;;18.50;73.00;;;;;;5057743;28;20153;-87
2022/09/02 09:17:43;;;;;;;0.60;0.45;;;18.50;72.20;;;;;;5039084;28;20176;-87
2022/09/02 09:20:19;;;;;;;0.22;0.20;;;18.50;70.90;;;;;;5014968;28;20180;-86
2022/09/02 09:22:47;;;;;;;1.27;0.45;;;18.40;72.70;;;;;;5014419;28;20177;-86
2022/09/02 09:25:15;;;;;;;0.45;0.45;;;18.00;95.10;;;;;;5032679;28;20208;-88
2022/09/02 09:27:41;;;;;;;0.38;0.38;;;;;;;;;;5032437;28;20176;-87
2022/09/02 09:30:09;;;;;;;0.65;0.40;;;18.80;71.90;;;;;;5030382;28;20232;-86
2022/09/02 09:32:48;;;;;;;0.50;0.50;;;18.70;93.40;;;;;;5007482;28;20201;-87
2022/09/02 09:35:16;;;;;;;0.30;0.30;;;18.70;71.10;;;;;;5032679;28;20642;-86
2022/09/02 09:37:42;;;;;;;2.40;0.40;;;;;;;;;;5032200;28;20177;-86
2022/09/02 09:40:16;;;;;;;1.17;0.47;;;19.10;74.50;;;;;;5021578;28;20656;-87
2022/09/02 09:42:43;;;;;;;0.52;0.30;;;18.70;72.20;;;;;;5005581;28;20179;-87
2022/09/02 09:45:20;;;;;;;1.50;0.68;;;;;;;;;;5008466;28;20228;-85
2022/09/02 09:48:14;;;;;;;0.30;0.30;;;19.10;71.50;;;;;;5000338;28;20604;-87
2022/09/02 09:50:40;;;;;;;0.30;0.20;;;18.90;93.00;;;;;;5020897;28;20323;-87
2022/09/02 09:53:21;;;;;;;0.30;0.30;;;19.30;72.00;;;;;;5022744;28;20681;-86
2022/09/02 09:56:03;;;;;;;0.60;0.20;;;19.80;71.00;;;;;;5025043;28;20192;-86
2022/09/02 09:58:35;;;;;;;0.30;0.30;;;18.90;93.40;;;;;;4998279;28;20184;-87
2022/09/02 10:01:22;;;;;;;0.30;0.20;;;19.50;72.10;;;;;;5020917;28;20172;-88
2022/09/02 10:03:48;;;;;;;0.52;0.30;;;;;;;;;;5015510;28;20223;-88
2022/09/02 10:06:21;;;;;;;0.35;0.30;;;19.50;81.40;;;;;;5025785;28;20672;-87
2022/09/02 10:09:01;;;;;;;1.10;0.50;;;20.30;76.40;;;;;;5006630;28;20649;-87
2022/09/02 10:11:29;;;;;;;1.38;0.65;;;20.00;67.20;;;;;;5027553;28;20177;-87
2022/09/02 10:14:14;;;;;;;0.50;0.40;;;20.20;74.50;;;;;;5025901;28;21001;-87
2022/09/02 10:16:56;;;;;;;0.30;0.30;;;19.90;91.80;;;;;;5004373;28;20695;-87
2022/09/02 10:19:27;;;;;;;0.25;0.20;;;19.70;91.10;;;;;;5032395;28;20177;-87
2022/09/02 10:21:53;;;;;;;1.67;0.68;;;;;;;;;;5003904;28;20247;-86
2022/09/02 10:24:30;;;;;;;0.30;0.30;;;20.50;92.00;;;;;;5002907;28;20646;-87
2022/09/02 10:26:58;;;;;;;0.45;0.40;;;20.60;67.60;;;;;;5005897;28;20192;-88
2022/09/02 10:29:39;;;;;;;0.43;0.40;;;20.40;91.00;;;;;;4997003;28;20283;-86
2022/09/02 10:32:18;;;;;;;0.32;0.20;;;21.00;91.80;;;;;;5002658;28;20271;-87
2022/09/02 10:34:57;;;;;;;0.30;0.30;;;;;;;;;;5023289;28;20202;-87
2022/09/02 10:37:25;;;;;;;0.50;0.38;;;21.40;90.90;;;;;;4989386;28;20176;-87
2022/09/02 10:40:16;;;;;;;0.82;0.52;;;21.10;65.20;;;;;;5031204;28;20177;-87
2022/09/02 10:43:04;;;;;;;1.27;0.38;;;21.90;91.10;;;;;;5016169;28;20177;-86
2022/09/02 10:45:30;;;;;;;0.40;0.32;;;;;;;;;;5019612;28;20205;-87
2022/09/02 10:47:59;;;;;;;0.30;0.30;;;21.50;88.00;;;;;;5032620;28;20211;-87
2022/09/02 10:50:47;;;;;;;0.55;0.50;;;21.50;61.70;;;;;;5020499;28;20226;-87
2022/09/02 10:53:13;;;;;;;0.32;0.32;;;;;;;;;;5023208;28;20188;-87
2022/09/02 10:55:59;;;;;;;0.32;0.20;;;21.50;87.90;;;;;;5002485;28;20239;-86
2022/09/02 10:58:25;;;;;;;0.17;0.17;;;;;;;;;;5014892;28;20265;-87
2022/09/02 11:00:55;;;;;;;0.35;0.35;;;21.60;61.00;;;;;;5004803;28;20593;-86
2022/09/02 11:03:29;;;;;;;0.50;0.32;;;21.60;61.10;;;;;;5017518;28;20176;-88
2022/09/02 11:06:04;;;;;;;0.20;0.20;;;21.20;59.30;;;;;;4997477;28;20681;-86
2022/09/02 11:08:46;;;;;;;0.20;0.20;;;21.30;88.80;;;;;;5002679;28;20188;-86
2022/09/02 11:11:28;;;;;;;1.20;0.88;;;20.80;61.30;;;;;;4996480;28;20189;-87
2022/09/02 11:13:54;;;;;;;0.20;0.20;;;;;;;;;;5016827;28;20180;-85
2022/09/02 11:16:47;;;;;;;0.50;0.47;;;21.00;85.90;;;;;;5004325;28;20218;-85
2022/09/02 11:19:31;;;;;;;0.30;0.30;;;21.20;85.90;;;;;;5022755;28;20211;-87
2022/09/02 11:22:20;;;;;;;0.22;0.22;;;21.20;84.50;;;;;;5007239;28;20518;-86
2022/09/02 11:25:01;;;;;;;0.40;0.40;;;21.30;85.30;;;;;;5026508;28;20200;-87
2022/09/02 11:27:42;;;;;;;1.42;0.50;;;21.20;85.80;;;;;;5017041;28;20243;-86
2022/09/02 11:30:13;;;;;;;0.65;0.65;;;21.10;85.00;;;;;;4993846;28;20232;-85
2022/09/02 11:33:25;;;;;;;0.30;0.30;;;20.50;85.70;;;;;;5023303;28;20171;-85
2022/09/02 11:35:51;;;;;;;0.20;0.20;;;;;;;;;;4959111;28;20189;-85
2022/09/02 11:38:32;;;;;;;2.72;1.10;;;21.30;86.10;;;;;;5019629;28;20189;-84
2022/09/02 11:41:46;;;;;;;0.60;0.60;;;20.80;58.40;;;;;;4996524;28;20177;-87
2022/09/02 11:44:33;;;;;;;0.30;0.30;;;20.70;59.90;;;;;;5008230;28;20185;-85
2022/09/02 11:47:25;;;;;;;3.67;1.80;;;20.80;57.40;;;;;;5024407;28;20196;-85
2022/09/02 11:50:18;;;;;;;1.23;0.75;;;20.70;59.30;;;;;;4997594;28;20181;-84
2022/09/02 11:52:44;;;;;;;2.60;1.33;;;;;;;;;;4978814;28;20178;-85
2022/09/02 11:55:10;;;;;;;0.55;0.55;;;;;;;;;;5012795;28;20180;-85
2022/09/02 11:57:40;;;;;;;0.73;0.50;;;;;;;;;;4998826;28;20631;-86
2022/09/02 12:00:09;;;;;;;0.20;0.20;;;21.00;86.80;;;;;;5019050;28;20173;-85
2022/09/02 12:02:38;;;;;;;1.65;0.63;;;21.00;59.40;;;;;;5021167;28;20602;-84
2022/09/02 12:05:30;;;;;;;8.60;2.78;;;20.70;84.80;;;;;;5020788;28;20201;-84
2022/09/02 12:08:20;;;;;;;0.20;0.20;;;20.80;58.40;;;;;;4974841;28;20534;-86
2022/09/02 12:10:50;;;;;;;0.20;0.20;;;21.00;83.30;;;;;;4965775;28;20194;-87
2022/09/02 12:13:42;;;;;;;2.10;0.70;;;20.10;77.30;;;;;;5010493;28;20188;-87
2022/09/02 12:16:19;;;;;;;0.47;0.30;;;20.80;84.30;;;;;;5027641;28;20180;-86
2022/09/02 12:18:54;;;;;;;0.68;0.55;;;20.50;84.40;;;;;;5033468;28;20182;-86
2022/09/02 12:21:23;;;;;;;0.63;0.30;;;20.70;58.10;;;;;;5033351;28;20192;-86
2022/09/02 12:23:55;;;;;;;0.32;0.30;;;20.80;83.70;;;;;;5014533;28;20268;-85
2022/09/02 12:26:21;;;;;;;0.32;0.30;;;;;;;;;;5013731;28;20204;-86
2022/09/02 12:28:48;;;;;;;1.85;0.40;;;21.20;58.10;;;;;;5014165;28;20181;-84
2022/09/02 12:31:39;;;;;;;1.13;0.20;;;21.20;58.80;;;;;;4980776;28;20235;-88
2022/09/02 12:34:23;;;;;;;0.10;0.10;;;;;;;;;;4996037;28;20177;-87
2022/09/02 12:36:50;;;;;;;0.38;0.35;;;;;;;;;;5024258;28;20552;-87
2022/09/02 12:39:26;;;;;;;0.20;0.20;;;21.40;57.10;;;;;;4999673;28;20169;-87
2022/09/02 12:42:27;;;;;;;0.82;0.50;;;21.60;81.80;;;;;;5022101;28;20179;-85
2022/09/02 12:45:24;;;;;;;0.40;0.30;;;21.70;58.00;;;;;;5026414;28;20200;-88
2022/09/02 12:48:26;;;;;;;1.33;0.93;;;22.20;71.30;;;;;;5018511;28;20605;-88
2022/09/02 12:50:57;;;;;;;0.73;0.40;;;22.50;81.70;;;;;;4980667;28;20198;-86
2022/09/02 12:53:23;;;;;;;0.20;0.20;;;;;;;;;;5044032;28;20240;-85
2022/09/02 12:56:11;;;;;;;1.05;0.55;;;21.80;55.70;;;;;;5020859;28;20161;-87
2022/09/02 12:58:41;;;;;;;0.28;0.28;;;21.80;54.80;;;;;;5010843;28;20200;-87
2022/09/02 13:01:46;;;;;;;0.38;0.25;;;21.40;80.80;;;;;;5015235;28;20180;-87
2022/09/02 13:04:12;;;;;;;0.20;0.20;;;;;;;;;;5020355;28;20173;-87
2022/09/02 13:06:48;;;;;;;2.08;0.77;;;22.20;81.20;;;;;;4996309;28;20223;-87
2022/09/02 13:09:14;;;;;;;0.15;0.15;;;;;;;;;;4994666;28;20545;-86
2022/09/02 13:12:10;;;;;;;0.30;0.30;;;22.30;80.60;;;;;;4994928;28;20192;-86
2022/09/02 13:14:51;;;;;;;1.35;0.25;;;21.80;81.10;;;;;;5024572;28;20188;-87
2022/09/02 13:17:30;;;;;;;0.85;0.47;;;22.20;79.50;;;;;;5005636;28;20980;-88
2022/09/02 13:20:33;;;;;;;1.23;0.65;;;22.00;55.40;;;;;;5022381;28;20255;-87
2022/09/02 13:23:39;;;;;;;0.22;0.22;;;22.10;80.90;;;;;;5008650;28;20772;-88
2022/09/02 13:26:11;;;;;;;0.50;0.50;;;;;;;;;;5020469;28;20243;-88
2022/09/02 13:28:37;;;;;;;0.70;0.22;;;;;;;;;;5010100;28;20719;-89
2022/09/02 13:31:13;;;;;;;0.17;0.17;;;22.70;79.80;;;;;;5024470;28;20260;-88
2022/09/02 13:33:40;;;;;;;0.22;0.20;;;22.10;54.60;;;;;;4986971;28;20295;-87
2022/09/02 13:36:07;;;;;;;0.20;0.20;;;22.20;80.30;;;;;;5009629;28;20223;-89
2022/09/02 13:38:33;;;;;;;0.55;0.40;;;;;;;;;;5012956;28;20193;-86
2022/09/02 13:40:59;;;;;;;2.78;1.08;;;;;;;;;;5029724;28;20265;-88
2022/09/02 13:43:26;;;;;;;0.20;0.20;;;22.20;55.70;;;;;;5013785;28;20182;-87